Time;durP1;ratioP1;P1;durP2;ratioP2;P2;SDS_P1;SDS_P2;PMS_P1;PMS_P2;Temp;Humidity;BMP_temperature;BMP_pressure;BME280_temperature;BME280_humidity;BME280_pressure;Samples;Min_cycle;Max_cycle;Signal;HPM_P1;HPM_P2
2022/11/06 00:01:08;;;;;;;15.32;7.30;;;;;;;7.56;100.00;100538.63;4993977;28;20393;-66
2022/11/06 00:03:34;;;;;;;14.30;8.40;;;;;;;7.55;100.00;100544.84;4993977;28;20393;-65
2022/11/06 00:08:44;;;;;;;12.38;7.45;;;;;;;7.42;100.00;100542.34;4993623;28;20126;-66
2022/11/06 00:11:12;;;;;;;13.00;7.30;;;;;;;7.32;100.00;100540.69;4993623;28;20548;-66
2022/11/06 00:13:38;;;;;;;12.82;7.45;;;;;;;7.25;100.00;100539.91;4993371;28;20030;-67
2022/11/06 00:16:05;;;;;;;13.63;6.82;;;;;;;7.18;100.00;100546.13;4993025;28;20034;-66
2022/11/06 00:18:32;;;;;;;11.15;5.68;;;;;;;7.08;100.00;100544.50;4992734;28;20157;-66
2022/11/06 00:20:57;;;;;;;13.20;5.88;;;;;;;7.02;100.00;100556.91;4992766;28;20038;-64
2022/11/06 00:23:23;;;;;;;13.63;6.30;;;;;;;6.95;100.00;100558.75;4992352;28;20034;-64
2022/11/06 00:25:51;;;;;;;12.23;5.85;;;;;;;6.87;100.00;100557.06;4992936;28;20069;-63
2022/11/06 00:28:18;;;;;;;11.48;5.70;;;;;;;6.79;100.00;100551.81;4992962;28;20030;-64
2022/11/06 00:30:43;;;;;;;10.32;5.78;;;;;;;6.74;100.00;100550.97;4993428;28;20066;-64
2022/11/06 00:33:09;;;;;;;10.30;5.78;;;;;;;6.72;100.00;100542.22;5003163;28;20053;-65
2022/11/06 00:35:38;;;;;;;11.20;6.88;;;;;;;6.72;100.00;100549.25;4998539;28;20033;-62
2022/11/06 00:38:03;;;;;;;12.25;6.53;;;;;;;6.78;100.00;100555.38;4993536;28;20149;-63
2022/11/06 00:40:29;;;;;;;11.07;6.18;;;;;;;6.74;100.00;100556.28;4993290;28;20105;-63
2022/11/06 00:42:55;;;;;;;14.15;6.85;;;;;;;6.69;100.00;100555.44;4993302;28;20433;-63
2022/11/06 00:45:20;;;;;;;11.65;6.50;;;;;;;6.67;100.00;100562.53;4991829;28;20045;-64
2022/11/06 00:47:46;;;;;;;11.35;5.88;;;;;;;6.65;100.00;100572.22;4993038;28;20113;-64
2022/11/06 00:50:11;;;;;;;10.00;5.45;;;;;;;6.64;100.00;100565.16;4992861;28;20033;-64
2022/11/06 00:52:36;;;;;;;10.15;5.57;;;;;;;6.61;100.00;100565.19;4993111;28;20562;-64
2022/11/06 00:55:02;;;;;;;11.40;5.55;;;;;;;6.57;100.00;100568.75;4992899;28;20037;-63
2022/11/06 00:57:27;;;;;;;8.10;4.82;;;;;;;6.56;100.00;100569.63;4993045;28;20081;-63
2022/11/06 00:59:53;;;;;;;11.95;5.80;;;;;;;6.48;100.00;100566.19;4992146;28;20118;-63
2022/11/06 01:02:19;;;;;;;9.55;5.97;;;;;;;6.49;100.00;100565.31;4992081;28;20026;-63
2022/11/06 01:04:46;;;;;;;10.57;5.63;;;;;;;6.48;100.00;100558.25;4991536;28;20042;-64
2022/11/06 01:07:11;;;;;;;9.20;5.35;;;;;;;6.47;100.00;100557.34;4991246;28;20077;-64
2022/11/06 01:09:37;;;;;;;11.43;6.57;;;;;;;6.44;100.00;100556.53;4991696;28;20543;-65
2022/11/06 01:12:03;;;;;;;10.95;6.20;;;;;;;6.42;100.00;100550.38;4991741;28;20028;-65
2022/11/06 01:14:29;;;;;;;10.05;6.15;;;;;;;6.39;100.00;100550.41;4991936;28;20029;-65
2022/11/06 01:16:55;;;;;;;10.32;6.32;;;;;;;6.37;100.00;100552.19;4992714;28;20030;-65
2022/11/06 01:19:22;;;;;;;21.20;6.82;;;;;;;6.39;100.00;100558.34;4995022;28;20743;-65
2022/11/06 01:21:51;;;;;;;13.52;6.47;;;;;;;6.38;100.00;100567.13;4994099;28;20014;-64
2022/11/06 01:24:23;;;;;;;11.10;6.85;;;;;;;6.34;100.00;100560.13;4992605;28;20477;-64
2022/11/06 01:26:49;;;;;;;11.93;6.80;;;;;;;6.30;100.00;100566.31;4992382;28;20493;-64
2022/11/06 01:29:16;;;;;;;12.05;7.28;;;;;;;6.29;100.00;100552.22;4992392;28;20030;-64
2022/11/06 01:31:42;;;;;;;14.02;8.10;;;;;;;6.34;100.00;100554.84;4992409;28;20037;-64
2022/11/06 01:34:10;;;;;;;15.85;7.95;;;;;;;6.36;100.00;100535.44;4992241;28;20121;-64
2022/11/06 01:36:35;;;;;;;10.98;7.05;;;;;;;6.45;100.00;100538.03;4992300;28;20034;-64
2022/11/06 01:39:04;;;;;;;13.07;7.07;;;;;;;6.58;100.00;100536.16;4994829;28;20552;-64
2022/11/06 01:41:33;;;;;;;13.27;6.80;;;;;;;6.63;100.00;100527.31;4992427;28;20417;-64
2022/11/06 01:44:02;;;;;;;14.18;6.93;;;;;;;6.67;100.00;100518.44;4992367;28;20413;-64
2022/11/06 01:46:32;;;;;;;18.70;7.68;;;;;;;6.66;100.00;100521.09;4992007;28;20033;-64
2022/11/06 01:49:09;;;;;;;14.43;7.35;;;;;;;6.64;100.00;100522.88;4992105;28;20077;-64
2022/11/06 01:51:48;;;;;;;12.23;6.63;;;;;;;6.62;100.00;100514.97;4991968;28;20081;-63
2022/11/06 01:54:14;;;;;;;10.90;5.75;;;;;;;6.58;100.00;100507.97;4992233;28;20105;-64
2022/11/06 01:56:42;;;;;;;10.48;5.38;;;;;;;6.59;100.00;100504.41;4991981;28;20134;-64
2022/11/06 01:59:11;;;;;;;11.48;6.75;;;;;;;6.58;100.00;100501.78;4991284;28;20097;-64
2022/11/06 02:01:37;;;;;;;11.13;6.38;;;;;;;6.56;100.00;100487.72;4991214;28;20026;-64
2022/11/06 02:04:09;;;;;;;13.07;6.20;;;;;;;6.52;100.00;100489.50;4990824;28;20045;-64
2022/11/06 02:06:36;;;;;;;13.10;5.95;;;;;;;6.43;100.00;100494.00;4990883;28;20040;-64
2022/11/06 02:09:10;;;;;;;12.02;6.63;;;;;;;6.32;100.00;100475.59;4990806;28;20429;-64
2022/11/06 02:11:36;;;;;;;11.23;6.00;;;;;;;6.23;100.00;100466.84;4990867;28;20021;-64
2022/11/06 02:14:31;;;;;;;11.38;6.05;;;;;;;6.21;100.00;100468.66;4991002;28;20026;-64
2022/11/06 02:17:18;;;;;;;9.73;5.47;;;;;;;6.20;100.00;100467.78;4982639;28;20096;-64
2022/11/06 02:19:59;;;;;;;12.57;5.88;;;;;;;6.21;100.00;100468.66;4991646;28;20022;-65
2022/11/06 02:22:48;;;;;;;11.48;6.50;;;;;;;6.15;100.00;100452.84;4991464;28;20521;-65
2022/11/06 02:25:13;;;;;;;12.52;6.00;;;;;;;6.08;100.00;100451.16;4991641;28;20516;-66
2022/11/06 02:27:44;;;;;;;10.25;5.93;;;;;;;6.05;100.00;100459.97;4991343;28;20117;-65
2022/11/06 02:30:13;;;;;;;10.48;5.55;;;;;;;6.01;100.00;100460.00;4991622;28;20109;-65
2022/11/06 02:32:50;;;;;;;10.38;5.63;;;;;;;5.97;100.00;100459.16;4991521;28;20041;-65
2022/11/06 02:35:37;;;;;;;11.20;5.57;;;;;;;5.91;100.00;100455.66;4999250;28;20038;-64
2022/11/06 02:38:17;;;;;;;10.15;5.50;;;;;;;5.77;100.00;100433.72;4972361;28;20031;-64
2022/11/06 02:40:49;;;;;;;9.57;5.93;;;;;;;5.84;100.00;100453.94;4971812;28;20098;-64
2022/11/06 02:43:16;;;;;;;9.35;5.95;;;;;;;5.79;100.00;100448.69;4972046;28;20023;-65
2022/11/06 02:45:47;;;;;;;9.98;6.10;;;;;;;5.80;100.00;100444.28;4972069;28;20085;-65
2022/11/06 02:48:18;;;;;;;11.40;5.63;;;;;;;5.75;100.00;100433.75;4971928;28;20031;-65
2022/11/06 02:50:48;;;;;;;9.18;5.50;;;;;;;5.70;100.00;100440.81;4972003;28;20114;-64
2022/11/06 02:53:16;;;;;;;9.93;5.53;;;;;;;5.63;100.00;100439.13;4971904;28;20490;-65
2022/11/06 02:56:06;;;;;;;11.38;5.68;;;;;;;5.60;100.00;100441.75;4972063;28;20035;-64
2022/11/06 02:58:39;;;;;;;10.48;5.55;;;;;;;5.54;100.00;100433.88;4971843;28;20041;-64
2022/11/06 03:01:14;;;;;;;9.27;5.40;;;;;;;5.45;100.00;100430.41;4971913;28;20031;-65
2022/11/06 03:03:46;;;;;;;9.05;5.15;;;;;;;5.40;100.00;100423.38;4979500;28;20026;-64
2022/11/06 03:06:26;;;;;;;8.10;4.68;;;;;;;5.36;100.00;100424.31;4991524;28;20030;-64
2022/11/06 03:09:01;;;;;;;12.20;5.50;;;;;;;5.34;100.00;100426.06;4990873;28;20129;-65
2022/11/06 03:11:30;;;;;;;8.32;5.13;;;;;;;5.17;100.00;100401.53;4992377;28;20474;-64
2022/11/06 03:13:55;;;;;;;9.18;5.03;;;;;;;5.29;100.00;100419.94;4997644;28;20030;-64
2022/11/06 03:16:42;;;;;;;9.43;5.85;;;;;;;5.31;100.00;100418.19;4994833;28;20034;-64
2022/11/06 03:19:16;;;;;;;9.45;5.57;;;;;;;5.30;100.00;100421.69;4994730;28;20034;-65
2022/11/06 03:22:07;;;;;;;10.60;5.57;;;;;;;5.28;100.00;100420.84;4994435;28;20038;-65
2022/11/06 03:24:39;;;;;;;8.02;4.63;;;;;;;5.25;100.00;100405.00;4997687;28;20030;-64
2022/11/06 03:27:19;;;;;;;10.45;6.47;;;;;;;5.24;100.00;100399.75;4994609;28;20685;-64
2022/11/06 03:30:02;;;;;;;10.82;6.03;;;;;;;5.21;100.00;100398.00;4994664;28;20026;-65
2022/11/06 03:33:00;;;;;;;9.00;5.78;;;;;;;5.23;100.00;100393.63;4996471;28;20041;-64
2022/11/06 03:35:42;;;;;;;11.43;4.97;;;;;;;5.25;100.00;100383.91;4989154;28;20128;-64
2022/11/06 03:38:14;;;;;;;10.02;5.45;;;;;;;5.23;100.00;100380.44;4994180;28;20112;-64
2022/11/06 03:40:45;;;;;;;10.50;4.95;;;;;;;5.23;100.00;100382.19;4994387;28;20053;-64
2022/11/06 03:43:14;;;;;;;10.32;5.63;;;;;;;5.23;100.00;100388.34;4994409;28;20030;-64
2022/11/06 03:45:42;;;;;;;10.98;5.43;;;;;;;5.25;100.00;100383.91;4994110;28;20034;-65
2022/11/06 03:48:08;;;;;;;10.70;5.70;;;;;;;5.27;100.00;100368.97;4993617;28;20030;-65
2022/11/06 03:50:42;;;;;;;13.50;5.68;;;;;;;5.24;100.00;100358.44;4993261;28;20049;-66
2022/11/06 03:53:14;;;;;;;11.05;5.63;;;;;;;5.22;100.00;100364.63;4993579;28;20046;-66
2022/11/06 03:55:52;;;;;;;9.48;5.68;;;;;;;5.09;100.00;100355.88;4993448;28;20030;-66
2022/11/06 03:58:25;;;;;;;13.38;5.60;;;;;;;5.11;100.00;100362.03;4993317;28;20029;-65
2022/11/06 04:00:53;;;;;;;11.90;6.73;;;;;;;5.09;100.00;100363.78;4993585;28;20041;-66
2022/11/06 04:03:28;;;;;;;12.13;5.78;;;;;;;5.10;100.00;100370.84;4993826;28;20070;-65
2022/11/06 04:06:12;;;;;;;10.38;6.18;;;;;;;5.07;100.00;100370.81;4993917;28;20027;-65
2022/11/06 04:14:14;;;;;;;6.82;4.50;;;;;;;4.82;100.00;100368.31;4993246;28;20069;-65
2022/11/06 04:16:48;;;;;;;7.30;4.28;;;;;;;4.73;100.00;100378.88;4992745;28;20117;-65
2022/11/06 04:19:22;;;;;;;8.38;4.85;;;;;;;4.69;100.00;100382.44;4992760;28;20066;-65
2022/11/06 04:22:11;;;;;;;7.30;4.00;;;;;;;4.66;100.00;100385.06;4993177;28;20374;-65
2022/11/06 04:27:45;;;;;;;7.22;4.32;;;;;;;4.59;100.00;100391.22;4993504;28;20081;-66
2022/11/06 04:30:13;;;;;;;8.20;4.93;;;;;;;4.54;100.00;100404.44;4993475;28;20033;-65
2022/11/06 04:33:04;;;;;;;9.35;4.90;;;;;;;4.49;100.00;100411.47;4993476;28;20473;-65
2022/11/06 04:35:35;;;;;;;10.02;4.80;;;;;;;4.51;100.00;100412.34;4993378;28;20420;-65
2022/11/06 04:38:19;;;;;;;8.63;4.55;;;;;;;4.48;100.00;100417.59;4993542;28;20157;-65
2022/11/06 04:40:56;;;;;;;;;;;;;;;4.47;100.00;100413.22;4993632;28;20081;-65
2022/11/06 04:43:40;;;;;;;11.80;5.13;;;;;;;4.45;100.00;100428.13;4995647;28;19917;-64
2022/11/06 04:46:10;;;;;;;8.77;4.38;;;;;;;4.46;100.00;100434.28;4992758;28;20056;-64
2022/11/06 04:48:38;;;;;;;12.00;5.07;;;;;;;4.45;100.00;100414.97;4992360;28;20486;-64
2022/11/06 04:51:07;;;;;;;8.75;4.80;;;;;;;4.45;100.00;100409.69;4992450;28;20521;-64
2022/11/06 04:53:34;;;;;;;7.65;4.57;;;;;;;4.46;100.00;100406.19;4992437;28;20026;-65
2022/11/06 04:56:06;;;;;;;8.55;4.22;;;;;;;4.45;100.00;100395.66;4992492;28;20026;-66
2022/11/06 04:58:32;;;;;;;8.00;4.10;;;;;;;4.42;100.00;100396.53;4992329;28;20069;-65
2022/11/06 05:00:57;;;;;;;9.90;4.63;;;;;;;4.40;100.00;100400.91;4993064;28;20046;-65
2022/11/06 05:03:22;;;;;;;8.70;4.30;;;;;;;4.43;100.00;100395.66;4992598;28;20084;-65
2022/11/06 05:05:48;;;;;;;8.55;4.90;;;;;;;4.45;100.00;100398.31;4992615;28;20038;-65
2022/11/06 05:08:16;;;;;;;12.85;5.68;;;;;;;4.47;100.00;100407.94;4992587;28;20496;-65
2022/11/06 05:10:42;;;;;;;8.00;5.10;;;;;;;4.43;100.00;100406.19;4992401;28;20026;-65
2022/11/06 05:13:08;;;;;;;9.00;5.05;;;;;;;4.55;100.00;100413.19;4992458;28;20042;-65
2022/11/06 05:15:34;;;;;;;9.40;5.35;;;;;;;4.54;100.00;100399.16;4992569;28;20037;-66
2022/11/06 05:17:59;;;;;;;12.95;5.15;;;;;;;4.62;100.00;100410.53;4992544;28;20044;-65
2022/11/06 05:20:24;;;;;;;16.58;6.03;;;;;;;4.67;100.00;100406.13;4992818;28;20037;-64
2022/11/06 05:23:02;;;;;;;14.07;5.32;;;;;;;4.72;100.00;100388.56;4992362;28;20030;-65
2022/11/06 05:25:30;;;;;;;25.13;6.18;;;;;;;4.73;100.00;100379.75;4994961;28;20018;-65
2022/11/06 05:27:56;;;;;;;10.48;5.15;;;;;;;4.78;100.00;100367.44;4990694;28;20033;-65
2022/11/06 05:30:23;;;;;;;16.85;5.18;;;;;;;4.79;100.00;100353.41;4991838;28;20375;-65
2022/11/06 05:32:49;;;;;;;11.20;5.30;;;;;;;4.86;100.00;100349.84;4991273;28;20035;-64
2022/11/06 05:35:15;;;;;;;12.38;6.22;;;;;;;4.87;100.00;100348.97;4991373;28;20026;-64
2022/11/06 05:37:41;;;;;;;18.27;5.38;;;;;;;5.01;100.00;100359.44;4991583;28;20032;-64
2022/11/06 05:40:09;;;;;;;14.80;5.20;;;;;;;5.02;100.00;100350.66;4991435;28;20097;-64
2022/11/06 05:42:42;;;;;;;12.68;5.40;;;;;;;5.03;100.00;100353.28;4991304;28;20493;-65
2022/11/06 05:45:09;;;;;;;12.80;5.32;;;;;;;4.88;100.00;100337.53;4991755;28;20027;-65
2022/11/06 05:47:38;;;;;;;11.95;5.05;;;;;;;5.05;100.00;100356.81;4992090;28;20062;-65
2022/11/06 05:50:04;;;;;;;10.23;4.80;;;;;;;4.99;100.00;100334.88;4991625;28;20030;-64
2022/11/06 05:52:30;;;;;;;10.60;5.05;;;;;;;4.98;100.00;100333.09;4992103;28;20478;-64
2022/11/06 05:54:55;;;;;;;12.35;5.30;;;;;;;4.99;100.00;100334.88;4991898;28;20579;-64
2022/11/06 05:57:20;;;;;;;11.15;5.30;;;;;;;4.97;100.00;100331.34;4991779;28;20030;-64
2022/11/06 05:59:46;;;;;;;9.10;5.15;;;;;;;4.97;100.00;100339.25;4990993;28;20096;-64
2022/11/06 06:02:11;;;;;;;10.02;5.03;;;;;;;4.97;100.00;100337.50;4991306;28;20053;-65
2022/11/06 06:04:37;;;;;;;10.32;4.90;;;;;;;4.98;100.00;100333.97;4990858;28;20473;-64
2022/11/06 06:07:02;;;;;;;12.57;5.68;;;;;;;4.97;100.00;100321.69;4991022;28;20061;-64
2022/11/06 06:09:28;;;;;;;10.00;5.13;;;;;;;4.97;100.00;100313.78;4990962;28;20034;-64
2022/11/06 06:11:53;;;;;;;13.27;5.63;;;;;;;4.84;100.00;100284.88;4991210;28;20559;-64
2022/11/06 06:14:20;;;;;;;10.13;6.82;;;;;;;4.92;100.00;100298.88;4991660;28;20034;-65
2022/11/06 06:16:46;;;;;;;15.65;5.30;;;;;;;4.89;100.00;100299.75;4991238;28;20108;-64
2022/11/06 06:19:12;;;;;;;12.68;4.78;;;;;;;4.84;100.00;100293.63;4991483;28;20037;-65
2022/11/06 06:21:37;;;;;;;9.77;4.32;;;;;;;4.78;100.00;100287.50;4991659;28;20589;-65
2022/11/06 06:24:04;;;;;;;10.18;5.20;;;;;;;4.75;100.00;100283.16;4991543;28;20023;-65
2022/11/06 06:26:29;;;;;;;12.65;5.85;;;;;;;4.77;100.00;100277.88;4990606;28;20073;-64
2022/11/06 06:28:55;;;;;;;13.77;5.00;;;;;;;4.77;100.00;100276.13;4988753;28;20062;-65
2022/11/06 06:31:20;;;;;;;10.07;4.85;;;;;;;4.76;100.00;100258.53;4989895;28;20030;-64
2022/11/06 06:33:46;;;;;;;14.13;6.07;;;;;;;4.78;100.00;100251.50;4991709;28;20034;-65
2022/11/06 06:36:11;;;;;;;11.52;5.57;;;;;;;4.76;100.00;100236.63;4991367;28;20022;-64
2022/11/06 06:38:37;;;;;;;15.27;6.10;;;;;;;4.87;100.00;100246.22;4993858;28;20374;-64
2022/11/06 06:41:03;;;;;;;15.02;5.55;;;;;;;4.82;100.00;100240.09;4991119;28;20029;-64
2022/11/06 06:43:30;;;;;;;11.57;5.70;;;;;;;4.72;100.00;100209.41;4991179;28;20420;-65
2022/11/06 06:46:03;;;;;;;8.18;4.30;;;;;;;4.82;100.00;100221.63;4992122;28;20109;-64
2022/11/06 06:48:29;;;;;;;9.15;5.53;;;;;;;4.83;100.00;100210.19;4995170;28;20049;-64
2022/11/06 06:50:59;;;;;;;14.65;6.70;;;;;;;4.86;100.00;100202.28;4995035;28;20030;-64
2022/11/06 06:53:24;;;;;;;30.55;5.40;;;;;;;4.90;100.00;100208.41;4995154;28;20041;-65
2022/11/06 06:55:50;;;;;;;12.55;5.00;;;;;;;4.92;100.00;100201.38;4995228;28;20038;-65
2022/11/06 06:58:15;;;;;;;9.93;5.28;;;;;;;4.95;100.00;100196.06;4994767;28;20026;-64
2022/11/06 07:00:41;;;;;;;11.02;5.70;;;;;;;4.96;100.00;100177.59;4995090;28;20355;-65
2022/11/06 07:03:07;;;;;;;9.20;5.35;;;;;;;5.06;100.00;100176.66;4993268;28;20125;-65
2022/11/06 07:05:32;;;;;;;10.02;5.53;;;;;;;5.05;100.00;100161.72;4994057;28;20033;-64
2022/11/06 07:07:58;;;;;;;13.13;5.88;;;;;;;5.25;100.00;100159.78;4992869;28;20055;-64
2022/11/06 07:10:23;;;;;;;10.57;5.43;;;;;;;5.46;100.00;100169.25;4992984;28;20072;-64
2022/11/06 07:12:49;;;;;;;10.05;5.65;;;;;;;5.66;100.00;100171.69;4992829;28;20034;-65
2022/11/06 07:15:14;;;;;;;8.73;4.63;;;;;;;5.92;100.00;100167.03;4988639;28;20030;-65
2022/11/06 07:17:40;;;;;;;10.45;5.68;;;;;;;6.31;100.00;100163.94;4989955;28;20030;-65
2022/11/06 07:20:07;;;;;;;10.85;5.85;;;;;;;6.86;100.00;100138.44;4991346;28;20025;-65
2022/11/06 07:22:32;;;;;;;9.45;5.10;;;;;;;7.63;100.00;100145.91;4991795;28;20030;-65
2022/11/06 07:24:58;;;;;;;10.75;5.38;;;;;;;8.73;100.00;100148.03;4991229;28;20038;-65
2022/11/06 07:27:24;;;;;;;10.73;6.00;;;;;;;9.73;100.00;100155.22;4991839;28;20142;-65
2022/11/06 07:29:49;;;;;;;8.27;5.03;;;;;;;10.42;100.00;100155.91;4987779;28;20957;-65
2022/11/06 07:32:14;;;;;;;8.65;4.90;;;;;;;11.00;96.49;100154.97;4990171;28;20117;-65
2022/11/06 07:34:40;;;;;;;8.85;4.78;;;;;;;11.34;92.53;100162.72;4988336;28;20045;-65
2022/11/06 07:37:05;;;;;;;9.85;5.05;;;;;;;11.96;88.19;100184.59;4988185;28;20041;-64
2022/11/06 07:39:31;;;;;;;8.38;4.60;;;;;;;12.56;80.93;100190.31;4989773;28;20790;-65
2022/11/06 07:41:57;;;;;;;8.13;5.38;;;;;;;11.79;76.44;100198.50;4989847;28;20034;-66
2022/11/06 07:44:22;;;;;;;7.97;3.83;;;;;;;10.51;78.40;100211.47;4992215;28;20037;-65
2022/11/06 07:46:47;;;;;;;9.93;4.30;;;;;;;9.61;82.99;100219.25;4992809;28;20034;-65
2022/11/06 07:49:14;;;;;;;9.93;4.57;;;;;;;9.16;85.94;100231.88;4989291;28;20124;-65
2022/11/06 07:51:41;;;;;;;8.80;4.30;;;;;;;8.68;89.56;100243.56;4992440;28;20038;-65
2022/11/06 07:54:06;;;;;;;8.13;4.57;;;;;;;8.37;92.81;100263.66;4992148;28;20096;-65
2022/11/06 07:56:32;;;;;;;9.25;5.35;;;;;;;8.01;94.55;100273.16;4991428;28;20034;-65
2022/11/06 07:58:57;;;;;;;9.02;4.05;;;;;;;7.82;96.30;100289.41;4988386;28;20553;-65
2022/11/06 08:01:23;;;;;;;7.72;4.22;;;;;;;7.55;97.79;100311.03;4993214;28;20022;-65
2022/11/06 08:03:48;;;;;;;10.85;4.57;;;;;;;7.30;98.96;100325.53;4992216;28;20431;-64
2022/11/06 08:06:14;;;;;;;8.98;4.65;;;;;;;7.01;99.92;100327.72;4992847;28;20026;-64
2022/11/06 08:08:39;;;;;;;9.38;5.55;;;;;;;6.82;100.00;100321.78;4992578;28;20193;-64
2022/11/06 08:11:07;;;;;;;8.70;4.90;;;;;;;6.67;100.00;100312.28;4990201;28;20026;-65
2022/11/06 08:13:33;;;;;;;11.50;5.25;;;;;;;6.78;100.00;100304.22;4989291;28;20089;-64
2022/11/06 08:16:19;;;;;;;9.00;5.82;;;;;;;7.12;100.00;100297.56;4990768;28;20061;-65
2022/11/06 08:18:44;;;;;;;7.95;5.25;;;;;;;7.54;100.00;100304.88;4988475;28;20046;-65
2022/11/06 08:21:10;;;;;;;27.55;6.90;;;;;;;8.57;100.00;100289.78;4989201;28;20029;-65
2022/11/06 08:23:35;;;;;;;17.13;6.93;;;;;;;9.63;100.00;100275.88;4986256;28;20034;-65
2022/11/06 08:26:03;;;;;;;12.07;6.93;;;;;;;10.15;89.35;100264.78;4987969;28;20022;-65
2022/11/06 08:28:28;;;;;;;12.68;6.55;;;;;;;10.17;86.46;100284.22;4989170;28;20041;-64
2022/11/06 08:30:54;;;;;;;9.90;5.53;;;;;;;10.16;85.17;100271.88;4986711;28;20114;-65
2022/11/06 08:33:21;;;;;;;9.25;5.45;;;;;;;9.91;82.43;100257.44;4989592;28;20030;-67
2022/11/06 08:35:47;;;;;;;10.27;5.85;;;;;;;10.12;84.37;100275.50;4988369;28;20053;-63
2022/11/06 08:38:13;;;;;;;10.23;6.43;;;;;;;9.36;83.56;100259.75;4985949;28;20084;-63
2022/11/06 08:40:39;;;;;;;10.32;5.75;;;;;;;8.10;89.87;100252.69;4988604;28;20034;-62
2022/11/06 08:43:07;;;;;;;11.75;5.95;;;;;;;7.82;95.05;100252.34;4991086;28;20026;-62
2022/11/06 08:45:39;;;;;;;11.40;6.38;;;;;;;7.67;97.64;100248.19;4989214;28;20026;-62
2022/11/06 08:48:06;;;;;;;8.38;4.97;;;;;;;7.52;100.00;100231.69;4990515;28;20038;-63
2022/11/06 08:50:33;;;;;;;11.50;7.10;;;;;;;7.46;100.00;100210.63;4989663;28;20429;-62
2022/11/06 08:53:03;;;;;;;13.70;7.45;;;;;;;7.61;100.00;100210.38;4989339;28;20680;-63
2022/11/06 08:55:29;;;;;;;10.90;6.22;;;;;;;7.46;100.00;100182.38;4989973;28;20034;-62
2022/11/06 08:57:55;;;;;;;16.15;8.68;;;;;;;7.54;100.00;100199.03;4989241;28;20026;-62
2022/11/06 09:00:21;;;;;;;8.90;4.00;;;;;;;7.45;100.00;100204.47;4989000;28;20036;-62
2022/11/06 09:02:46;;;;;;;11.73;6.07;;;;;;;7.40;100.00;100206.31;4992465;28;20030;-62
2022/11/06 09:05:12;;;;;;;15.05;7.00;;;;;;;7.44;100.00;100192.13;4987699;28;20109;-63
2022/11/06 09:07:37;;;;;;;11.10;5.82;;;;;;;7.39;100.00;100191.34;4992504;28;20474;-62
2022/11/06 09:10:03;;;;;;;9.20;5.18;;;;;;;7.52;100.00;100189.34;4988393;28;20125;-63
2022/11/06 09:12:28;;;;;;;10.65;5.90;;;;;;;7.73;100.00;100173.06;4988470;28;20030;-63
2022/11/06 09:14:53;;;;;;;24.85;11.65;;;;;;;7.90;100.00;100133.91;4986080;28;20413;-63
2022/11/06 09:17:22;;;;;;;18.00;8.70;;;;;;;8.07;100.00;100140.59;4988079;28;20097;-63
2022/11/06 09:19:49;;;;;;;13.18;6.72;;;;;;;8.54;100.00;100138.75;4990650;28;20948;-63
2022/11/06 09:22:14;;;;;;;13.52;6.50;;;;;;;8.96;100.00;100121.84;4985104;28;20026;-63
2022/11/06 09:24:40;;;;;;;16.33;7.45;;;;;;;9.55;100.00;100102.59;4986078;28;20022;-63
2022/11/06 09:27:05;;;;;;;15.57;8.00;;;;;;;10.64;100.00;100095.81;4986933;28;20022;-63
2022/11/06 09:29:31;;;;;;;14.50;8.77;;;;;;;12.07;98.91;100107.75;5001908;28;20085;-63
2022/11/06 09:31:56;;;;;;;12.00;6.82;;;;;;;12.68;89.04;100094.69;4985640;28;20038;-64
2022/11/06 09:34:21;;;;;;;11.13;5.63;;;;;;;13.73;82.91;100099.13;4987064;28;20084;-63
2022/11/06 09:36:47;;;;;;;9.63;5.75;;;;;;;13.60;75.35;100092.59;4986093;28;20087;-64
2022/11/06 09:39:12;;;;;;;12.30;5.35;;;;;;;13.32;73.64;100094.72;4986580;28;20038;-63
2022/11/06 09:41:59;;;;;;;7.47;4.45;;;;;;;12.71;75.03;100091.88;4987250;28;20035;-63
2022/11/06 09:44:42;;;;;;;10.05;4.97;;;;;;;12.48;76.55;100091.03;4984959;28;20773;-64
2022/11/06 09:47:24;;;;;;;8.27;5.15;;;;;;;11.98;78.43;100098.28;4987802;28;20054;-64
2022/11/06 09:49:52;;;;;;;8.40;4.55;;;;;;;11.59;79.93;100100.56;4984653;28;20072;-64
2022/11/06 09:52:30;;;;;;;9.32;5.10;;;;;;;11.87;83.11;100090.72;4987182;28;20033;-63
2022/11/06 09:55:09;;;;;;;7.97;4.90;;;;;;;12.59;81.72;100068.34;4987976;28;20435;-64
2022/11/06 09:57:44;;;;;;;8.00;4.93;;;;;;;13.01;78.65;100063.09;4984310;28;20037;-64
2022/11/06 10:00:12;;;;;;;6.97;4.75;;;;;;;13.17;76.54;100058.84;4986892;28;20026;-64
2022/11/06 10:02:54;;;;;;;8.65;4.97;;;;;;;13.53;74.05;100067.06;4986598;28;20030;-65
2022/11/06 10:05:29;;;;;;;8.02;4.72;;;;;;;14.04;72.93;100064.72;4985613;28;20037;-64
2022/11/06 10:07:58;;;;;;;7.55;5.07;;;;;;;14.20;73.29;100060.44;4985217;28;20137;-65
2022/11/06 10:10:35;;;;;;;8.40;4.82;;;;;;;13.94;71.75;100058.94;4985976;28;20027;-64
2022/11/06 10:13:22;;;;;;;8.25;4.65;;;;;;;14.19;71.40;100048.84;4986950;28;20529;-65
2022/11/06 10:15:53;;;;;;;10.98;4.90;;;;;;;14.27;69.09;100048.53;4986352;28;20022;-65
2022/11/06 10:18:30;;;;;;;6.80;3.97;;;;;;;14.43;66.80;100053.06;4983233;28;20026;-65
2022/11/06 10:21:18;;;;;;;7.47;4.20;;;;;;;14.57;66.15;100044.38;4986183;28;20054;-64
2022/11/06 10:23:58;;;;;;;6.53;3.80;;;;;;;14.49;69.91;100031.41;4983638;28;20027;-65
2022/11/06 10:26:32;;;;;;;5.53;3.67;;;;;;;14.93;67.89;100023.84;4985990;28;20374;-65
2022/11/06 10:29:01;;;;;;;7.15;3.97;;;;;;;15.17;64.79;100035.13;4986201;28;20034;-65
2022/11/06 10:31:41;;;;;;;6.70;3.90;;;;;;;15.34;64.00;100033.31;4985188;28;20034;-65
2022/11/06 10:34:25;;;;;;;5.55;3.60;;;;;;;15.82;63.81;100020.03;4985748;28;20421;-65
2022/11/06 10:36:55;;;;;;;5.35;3.50;;;;;;;16.31;60.92;100017.38;4984393;28;20077;-65
2022/11/06 10:39:29;;;;;;;5.35;3.38;;;;;;;16.81;57.96;100005.50;4984676;28;20026;-66
2022/11/06 10:42:03;;;;;;;6.15;3.45;;;;;;;17.18;55.65;100006.03;4986428;28;20036;-66
2022/11/06 10:44:38;;;;;;;7.30;3.65;;;;;;;17.10;55.46;99993.03;4985410;28;20037;-65
2022/11/06 10:47:32;;;;;;;;;;;;;;;17.22;55.17;99996.81;4988544;28;20417;-65
2022/11/06 10:49:59;;;;;;;;;;;;;;;17.08;55.04;99984.22;4975745;28;19918;-65
2022/11/06 10:52:27;;;;;;;5.95;3.53;;;;;;;17.18;53.85;99982.72;4986826;28;19973;-65
2022/11/06 10:55:04;;;;;;;7.15;4.22;;;;;;;16.78;55.09;99980.63;4984069;28;20034;-65
2022/11/06 10:57:36;;;;;;;6.43;4.07;;;;;;;16.51;56.45;99982.22;4987008;28;20037;-65
2022/11/06 11:00:10;;;;;;;5.97;3.53;;;;;;;16.10;57.91;99973.78;4984682;28;21052;-65
2022/11/06 11:02:41;;;;;;;6.20;3.78;;;;;;;15.52;59.99;99970.72;4985841;28;20030;-65
2022/11/06 11:05:15;;;;;;;5.60;3.58;;;;;;;15.17;63.14;99966.31;4985389;28;20056;-65
2022/11/06 11:07:43;;;;;;;7.60;3.60;;;;;;;14.89;63.33;99957.97;4983401;28;20061;-65
2022/11/06 11:10:31;;;;;;;6.35;4.10;;;;;;;15.00;64.38;99963.66;4986790;28;20086;-65
2022/11/06 11:12:59;;;;;;;7.38;3.83;;;;;;;14.75;65.44;99963.16;4983357;28;20040;-65
2022/11/06 11:15:31;;;;;;;6.18;3.60;;;;;;;14.58;66.20;99949.75;4986376;28;20037;-64
2022/11/06 11:18:10;;;;;;;5.18;3.25;;;;;;;14.25;67.00;99946.94;4990586;28;20057;-65
2022/11/06 11:20:41;;;;;;;5.18;3.35;;;;;;;13.94;68.07;99929.72;4987592;28;20019;-64
2022/11/06 11:23:21;;;;;;;6.72;3.72;;;;;;;13.61;70.11;99929.50;4988492;28;20113;-64
2022/11/06 11:25:51;;;;;;;6.90;3.42;;;;;;;13.18;72.90;99933.25;4981549;28;20042;-65
2022/11/06 11:28:28;;;;;;;5.72;3.58;;;;;;;13.16;74.47;99919.09;4986137;28;20097;-64
2022/11/06 11:31:12;;;;;;;5.88;3.58;;;;;;;13.15;73.91;99922.69;4988195;28;20026;-64
2022/11/06 11:33:40;;;;;;;5.32;3.50;;;;;;;13.07;71.63;99924.84;4991048;28;20026;-65
2022/11/06 11:36:08;;;;;;;7.85;3.30;;;;;;;13.15;72.18;99917.34;4989452;28;20088;-64
2022/11/06 11:38:36;;;;;;;5.95;3.67;;;;;;;13.27;72.24;99920.41;4988025;28;20100;-65
2022/11/06 11:41:25;;;;;;;6.40;3.60;;;;;;;13.66;72.41;99918.56;4990494;28;20425;-64
2022/11/06 11:44:04;;;;;;;8.43;4.05;;;;;;;14.03;70.30;99913.25;4978596;28;20101;-64
2022/11/06 11:46:31;;;;;;;7.63;3.60;;;;;;;14.26;67.91;99918.38;4988424;28;20022;-64